^^
Datos históricos de la estación: Murcia-Puente Tocinos
Diario Informe para Marzo 18, 2019 Unidades:  Métrico    Inglés   Ambas
Diario Semanal Mensual Anual Configurable
  Máximo: Mínimo: Media:
Temperatura: 19.8 °C 11.7 °C 14.6 °C
Punto de rocio: 10.7 °C 1.2 °C 8.2 °C
Humedad: 79% 29% 66%
Velocidad viento: 19.3km/h 0.0km/h 9.6km/h
Racha viento: 33.8km/h - -
Viento- - NE
Presión: 1023.2 hPa 1015.6 hPa -
Precipitación: 0.3 mm    
Historical Graphs
 
 
Tabla de datos para Marzo 18, 2019
Hora Temperatura Punto de rocio Presión Viento Velocidad viento Racha viento Humedad Intensidad lluvia(por hora) Nubes
00:05 19.8 °C 1.2 °C 1015.6 hPa NNW 8.0 km/h 12.9 km/h 29% 0.0 mm CLR
00:10 19.6 °C 1.6 °C 1015.6 hPa North 7.6 km/h 18.5 km/h 30% 0.0 mm CLR
00:15 19.5 °C 1.9 °C 1015.6 hPa NNE 8.0 km/h 20.9 km/h 31% 0.0 mm CLR
00:20 18.9 °C 4.3 °C 1015.9 hPa East 11.9 km/h 18.5 km/h 38% 0.0 mm CLR
00:25 18.7 °C 5.2 °C 1015.9 hPa NE 11.3 km/h 20.9 km/h 41% 0.0 mm CLR
00:30 18.4 °C 5.6 °C 1015.9 hPa NE 9.7 km/h 14.5 km/h 43% 0.0 mm CLR
00:35 18.3 °C 6.1 °C 1016.0 hPa NE 9.7 km/h 14.5 km/h 45% 0.0 mm CLR
00:40 18.1 °C 6.3 °C 1016.0 hPa ENE 8.7 km/h 14.8 km/h 46% 0.0 mm CLR
00:45 17.9 °C 6.4 °C 1016.0 hPa NE 8.7 km/h 11.1 km/h 47% 0.0 mm CLR
00:50 17.8 °C 6.6 °C 1016.0 hPa NE 9.7 km/h 11.3 km/h 48% 0.0 mm CLR
00:55 17.6 °C 6.4 °C 1016.0 hPa NE 9.7 km/h 12.9 km/h 48% 0.0 mm CLR
01:00 17.5 °C 6.7 °C 1016.0 hPa NE 8.0 km/h 9.7 km/h 49% 0.0 mm CLR
01:05 17.4 °C 6.9 °C 1016.0 hPa NE 7.6 km/h 13.0 km/h 50% 0.0 mm CLR
01:10 17.3 °C 6.8 °C 1016.0 hPa NE 7.6 km/h 13.0 km/h 50% 0.0 mm CLR
01:15 17.2 °C 6.9 °C 1016.0 hPa NE 8.0 km/h 14.5 km/h 51% 0.0 mm CLR
01:20 16.9 °C 7.0 °C 1016.2 hPa NE 9.5 km/h 11.1 km/h 52% 0.0 mm CLR
01:25 16.8 °C 7.2 °C 1016.2 hPa NE 9.7 km/h 16.1 km/h 53% 0.0 mm CLR
01:30 16.7 °C 7.3 °C 1016.2 hPa NE 8.0 km/h 12.9 km/h 54% 0.0 mm CLR
01:35 16.6 °C 7.2 °C 1016.2 hPa NNE 8.0 km/h 12.9 km/h 54% 0.0 mm CLR
01:39 16.4 °C 7.3 °C 1016.2 hPa North 7.6 km/h 11.1 km/h 55% 0.0 mm CLR
01:45 16.3 °C 7.5 °C 1016.2 hPa NNE 7.6 km/h 13.0 km/h 56% 0.0 mm CLR
01:49 16.3 °C 7.5 °C 1016.3 hPa NNE 8.4 km/h 16.7 km/h 56% 0.0 mm CLR
01:55 16.3 °C 7.5 °C 1016.3 hPa NNE 8.4 km/h 11.1 km/h 56% 0.0 mm CLR
02:00 16.2 °C 7.7 °C 1016.3 hPa NE 11.3 km/h 19.3 km/h 57% 0.0 mm CLR
02:05 15.9 °C 7.4 °C 1016.4 hPa North 11.1 km/h 11.1 km/h 57% 0.0 mm CLR
02:10 15.7 °C 7.5 °C 1016.4 hPa NNE 8.0 km/h 11.3 km/h 58% 0.0 mm CLR
02:14 15.6 °C 7.3 °C 1016.4 hPa NNE 8.4 km/h 9.3 km/h 58% 0.0 mm CLR
02:20 15.5 °C 7.3 °C 1016.6 hPa North 4.8 km/h 8.0 km/h 58% 0.0 mm CLR
02:25 15.4 °C 7.4 °C 1016.6 hPa North 4.8 km/h 8.0 km/h 59% 0.0 mm CLR
02:30 15.4 °C 7.4 °C 1016.6 hPa North 3.2 km/h 8.0 km/h 59% 0.0 mm CLR
02:35 15.3 °C 7.3 °C 1016.6 hPa North 3.2 km/h 8.0 km/h 59% 0.0 mm CLR
02:39 15.3 °C 7.3 °C 1016.6 hPa NNE 4.7 km/h 5.6 km/h 59% 0.0 mm CLR
02:45 15.3 °C 7.3 °C 1016.6 hPa North 4.7 km/h 5.6 km/h 59% 0.0 mm CLR
02:49 15.2 °C 7.5 °C 1016.7 hPa NE 3.9 km/h 3.7 km/h 60% 0.0 mm CLR
02:55 15.2 °C 7.5 °C 1016.7 hPa NNE 3.2 km/h 8.0 km/h 60% 0.0 mm CLR
03:00 15.1 °C 7.6 °C 1016.7 hPa NNE 3.2 km/h 11.3 km/h 61% 0.0 mm CLR
03:05 15.0 °C 7.6 °C 1016.7 hPa NNE 3.2 km/h 9.7 km/h 61% 0.0 mm CLR
03:10 14.9 °C 7.7 °C 1016.7 hPa NNE 3.2 km/h 8.0 km/h 62% 0.0 mm CLR
03:15 14.9 °C 7.7 °C 1016.7 hPa NNE 3.2 km/h 8.0 km/h 62% 0.0 mm CLR
03:20 14.8 °C 7.6 °C 1016.8 hPa NNE 3.2 km/h 8.0 km/h 62% 0.0 mm CLR
03:25 14.7 °C 7.7 °C 1016.8 hPa NNE 3.2 km/h 6.4 km/h 63% 0.0 mm CLR
03:30 14.6 °C 7.6 °C 1016.8 hPa NNE 2.9 km/h 5.6 km/h 63% 0.0 mm CLR
03:35 14.6 °C 7.6 °C 1016.9 hPa NNE 3.2 km/h 6.4 km/h 63% 0.0 mm CLR
03:40 14.4 °C 7.7 °C 1016.9 hPa NNE 3.2 km/h 6.4 km/h 64% 0.0 mm CLR
03:45 14.3 °C 7.6 °C 1016.9 hPa North 3.2 km/h 6.4 km/h 64% 0.0 mm CLR
03:50 14.3 °C 7.8 °C 1017.0 hPa NNW 3.2 km/h 9.7 km/h 65% 0.0 mm CLR
03:55 14.2 °C 7.7 °C 1017.0 hPa NNE 3.2 km/h 9.3 km/h 65% 0.0 mm CLR
03:59 14.1 °C 7.6 °C 1017.0 hPa NNE 5.8 km/h 9.3 km/h 65% 0.0 mm CLR
04:05 13.9 °C 7.4 °C 1017.2 hPa NNE 4.8 km/h 12.9 km/h 65% 0.0 mm CLR
04:10 13.9 °C 7.4 °C 1017.2 hPa NE 8.0 km/h 12.9 km/h 65% 0.0 mm CLR
04:15 13.8 °C 7.3 °C 1017.2 hPa NNE 7.6 km/h 13.0 km/h 65% 0.0 mm CLR
04:20 13.9 °C 7.4 °C 1017.2 hPa ENE 9.5 km/h 16.7 km/h 65% 0.0 mm CLR
04:25 14.1 °C 7.4 °C 1017.2 hPa NE 9.7 km/h 20.9 km/h 64% 0.0 mm CLR
04:30 14.2 °C 7.3 °C 1017.2 hPa NE 13.0 km/h 18.5 km/h 63% 0.0 mm CLR
04:35 14.3 °C 7.1 °C 1017.3 hPa NE 12.9 km/h 22.5 km/h 62% 0.0 mm CLR
04:40 14.3 °C 7.1 °C 1017.3 hPa NE 12.2 km/h 18.5 km/h 62% 0.0 mm CLR
04:45 14.2 °C 7.0 °C 1017.3 hPa ENE 12.2 km/h 16.7 km/h 62% 0.0 mm CLR
04:50 14.2 °C 7.3 °C 1017.4 hPa NE 11.1 km/h 19.0 km/h 63% 0.0 mm CLR
04:55 14.3 °C 8.1 °C 1017.4 hPa NE 11.1 km/h 22.2 km/h 66% 0.0 mm CLR
05:00 14.4 °C 8.3 °C 1017.4 hPa NE 12.9 km/h 22.5 km/h 67% 0.0 mm CLR
05:05 14.4 °C 8.8 °C 1017.4 hPa North 13.7 km/h 27.8 km/h 69% 0.0 mm CLR
05:10 14.4 °C 9.0 °C 1017.4 hPa NE 14.5 km/h 27.4 km/h 70% 0.0 mm CLR
05:15 14.4 °C 9.2 °C 1017.4 hPa NE 14.5 km/h 29.0 km/h 71% 0.0 mm CLR
05:20 14.4 °C 9.4 °C 1017.6 hPa NE 14.0 km/h 27.8 km/h 72% 0.0 mm CLR
05:25 14.4 °C 9.4 °C 1017.6 hPa NNE 14.0 km/h 22.2 km/h 72% 0.0 mm CLR
05:30 14.3 °C 9.5 °C 1017.6 hPa NNE 14.8 km/h 25.9 km/h 73% 0.0 mm CLR
05:35 14.3 °C 9.7 °C 1017.9 hPa NE 14.5 km/h 24.1 km/h 74% 0.0 mm CLR
05:40 14.2 °C 9.6 °C 1017.9 hPa NE 16.1 km/h 22.5 km/h 74% 0.0 mm CLR
05:45 14.2 °C 9.6 °C 1017.9 hPa NE 16.1 km/h 16.7 km/h 74% 0.0 mm CLR
05:50 14.2 °C 9.8 °C 1018.2 hPa NE 14.8 km/h 24.1 km/h 75% 0.0 mm CLR
05:55 14.1 °C 9.7 °C 1018.2 hPa NE 14.8 km/h 20.4 km/h 75% 0.0 mm CLR
06:00 14.1 °C 9.7 °C 1018.2 hPa NE 16.1 km/h 24.1 km/h 75% 0.0 mm CLR
06:05 14.1 °C 9.7 °C 1018.3 hPa NNE 16.1 km/h 24.1 km/h 75% 0.0 mm CLR
06:09 14.1 °C 9.9 °C 1018.3 hPa NE 14.8 km/h 20.4 km/h 76% 0.0 mm CLR
06:15 14.1 °C 9.9 °C 1018.3 hPa NNE 14.5 km/h 22.5 km/h 76% 0.0 mm CLR
06:20 14.1 °C 9.9 °C 1018.3 hPa NNE 12.9 km/h 19.3 km/h 76% 0.0 mm CLR
06:25 14.0 °C 9.8 °C 1018.3 hPa NNE 12.9 km/h 19.3 km/h 76% 0.0 mm CLR
06:30 14.0 °C 9.8 °C 1018.3 hPa NNE 12.2 km/h 14.8 km/h 76% 0.0 mm CLR
06:35 14.0 °C 10.1 °C 1018.5 hPa NNE 12.9 km/h 24.1 km/h 77% 0.0 mm CLR
06:40 14.1 °C 10.1 °C 1018.5 hPa NNE 12.9 km/h 19.3 km/h 77% 0.0 mm CLR
06:45 14.1 °C 10.1 °C 1018.5 hPa North 12.2 km/h 16.7 km/h 77% 0.0 mm CLR
06:50 14.1 °C 10.1 °C 1018.7 hPa NNE 11.3 km/h 20.9 km/h 77% 0.0 mm CLR
06:55 14.1 °C 10.1 °C 1018.7 hPa NNE 11.9 km/h 14.8 km/h 77% 0.0 mm CLR
07:00 14.2 °C 10.2 °C 1018.7 hPa NNE 12.9 km/h 22.5 km/h 77% 0.0 mm CLR
07:05 14.2 °C 10.2 °C 1018.8 hPa ENE 13.7 km/h 18.5 km/h 77% 0.0 mm CLR
07:10 14.2 °C 10.2 °C 1018.8 hPa NE 12.9 km/h 20.9 km/h 77% 0.0 mm CLR
07:15 14.2 °C 10.4 °C 1018.8 hPa NE 13.0 km/h 20.4 km/h 78% 0.0 mm CLR
07:20 14.2 °C 10.4 °C 1019.1 hPa NE 11.9 km/h 14.8 km/h 78% 0.0 mm CLR
07:25 14.2 °C 10.4 °C 1019.1 hPa NE 11.3 km/h 20.9 km/h 78% 0.0 mm CLR
07:30 14.3 °C 10.7 °C 1019.1 hPa ENE 12.2 km/h 16.7 km/h 79% 0.0 mm CLR
07:35 14.3 °C 10.7 °C 1019.2 hPa NE 12.2 km/h 16.7 km/h 79% 0.0 mm CLR
07:40 14.3 °C 10.7 °C 1019.2 hPa NNE 11.1 km/h 16.7 km/h 79% 0.0 mm CLR
07:45 14.3 °C 10.7 °C 1019.2 hPa NNE 11.3 km/h 24.1 km/h 79% 0.0 mm CLR
07:50 14.3 °C 10.7 °C 1019.3 hPa NNE 12.9 km/h 20.9 km/h 79% 0.0 mm CLR
07:55 14.3 °C 10.7 °C 1019.3 hPa NE 13.7 km/h 16.7 km/h 79% 0.0 mm CLR
08:00 14.3 °C 10.7 °C 1019.3 hPa NE 12.9 km/h 19.3 km/h 79% 0.0 mm CLR
08:05 14.3 °C 10.5 °C 1019.5 hPa East 12.2 km/h 16.7 km/h 78% 0.0 mm CLR
08:10 14.4 °C 10.0 °C 1019.5 hPa NE 11.3 km/h 25.7 km/h 75% 0.0 mm CLR
08:15 14.5 °C 9.7 °C 1019.5 hPa NNE 11.1 km/h 18.5 km/h 73% 0.0 mm CLR
08:20 14.6 °C 9.6 °C 1019.8 hPa NE 12.9 km/h 20.9 km/h 72% 0.0 mm CLR
08:25 14.7 °C 9.4 °C 1019.8 hPa NE 12.9 km/h 22.5 km/h 71% 0.0 mm CLR
08:30 14.7 °C 9.3 °C 1019.8 hPa NE 14.5 km/h 24.1 km/h 70% 0.0 mm CLR
08:35 14.8 °C 9.4 °C 1020.0 hPa NE 14.5 km/h 27.4 km/h 70% 0.0 mm CLR
08:40 14.8 °C 9.4 °C 1020.0 hPa NE 14.5 km/h 24.1 km/h 70% 0.0 mm CLR
08:45 14.8 °C 9.2 °C 1020.0 hPa NE 14.5 km/h 33.8 km/h 69% 0.0 mm CLR
08:50 14.8 °C 9.2 °C 1020.2 hPa NE 19.3 km/h 30.6 km/h 69% 0.0 mm CLR
08:55 14.9 °C 9.1 °C 1020.2 hPa NE 19.3 km/h 27.4 km/h 68% 0.0 mm CLR
09:00 15.1 °C 9.0 °C 1020.2 hPa NE 14.5 km/h 22.5 km/h 67% 0.0 mm CLR
09:05 15.2 °C 8.9 °C 1020.4 hPa NE 14.5 km/h 27.4 km/h 66% 0.0 mm CLR
09:10 15.3 °C 9.0 °C 1020.4 hPa NE 14.5 km/h 22.5 km/h 66% 0.0 mm CLR
09:15 15.4 °C 9.1 °C 1020.4 hPa North 14.8 km/h 20.4 km/h 66% 0.0 mm CLR
09:20 15.5 °C 9.2 °C 1020.6 hPa NE 13.0 km/h 33.3 km/h 66% 0.0 mm CLR
09:25 15.5 °C 9.4 °C 1020.6 hPa NE 13.0 km/h 24.1 km/h 67% 0.0 mm CLR
09:30 15.4 °C 9.1 °C 1020.6 hPa NE 16.4 km/h 18.5 km/h 66% 0.0 mm CLR
09:35 15.3 °C 9.0 °C 1020.7 hPa NNE 16.4 km/h 29.6 km/h 66% 0.0 mm CLR
09:40 15.3 °C 9.2 °C 1020.7 hPa NE 16.1 km/h 29.0 km/h 67% 0.0 mm CLR
09:45 15.3 °C 9.0 °C 1020.7 hPa NNE 16.4 km/h 24.1 km/h 66% 0.0 mm CLR
09:50 15.3 °C 9.0 °C 1020.9 hPa NE 14.5 km/h 24.1 km/h 66% 0.0 mm CLR
09:55 15.4 °C 9.1 °C 1020.9 hPa NE 14.5 km/h 22.5 km/h 66% 0.0 mm CLR
10:00 15.4 °C 9.1 °C 1020.9 hPa NE 12.9 km/h 27.4 km/h 66% 0.0 mm CLR
10:05 15.3 °C 9.2 °C 1021.1 hPa NE 12.9 km/h 27.4 km/h 67% 0.0 mm CLR
10:10 15.3 °C 9.4 °C 1021.1 hPa NE 12.9 km/h 22.5 km/h 68% 0.0 mm CLR
10:15 15.2 °C 9.1 °C 1021.1 hPa NE 12.9 km/h 25.7 km/h 67% 0.0 mm CLR
10:20 15.2 °C 9.1 °C 1021.4 hPa ENE 16.1 km/h 16.7 km/h 67% 0.0 mm CLR
10:25 15.1 °C 9.2 °C 1021.4 hPa NNE 16.1 km/h 27.8 km/h 68% 0.0 mm CLR
10:30 15.1 °C 9.2 °C 1021.4 hPa North 16.1 km/h 20.4 km/h 68% 0.0 mm CLR
10:35 15.0 °C 9.1 °C 1021.5 hPa NE 16.1 km/h 25.9 km/h 68% 0.0 mm CLR
10:40 14.9 °C 9.1 °C 1021.5 hPa NE 16.1 km/h 30.6 km/h 68% 0.0 mm CLR
10:45 15.0 °C 9.1 °C 1021.5 hPa NE 16.4 km/h 16.7 km/h 68% 0.0 mm CLR
10:50 14.7 °C 9.9 °C 1021.6 hPa NNW 14.0 km/h 22.2 km/h 73% 0.0 mm CLR
10:55 14.4 °C 10.2 °C 1021.6 hPa ENE 14.0 km/h 14.8 km/h 76% 0.0 mm CLR
11:00 14.3 °C 10.3 °C 1021.6 hPa NNE 11.3 km/h 19.3 km/h 77% 0.0 mm CLR
11:05 14.4 °C 10.4 °C 1021.7 hPa NNE 11.3 km/h 16.1 km/h 77% 0.0 mm CLR
11:10 14.4 °C 10.4 °C 1021.7 hPa NE 8.7 km/h 14.8 km/h 77% 0.0 mm CLR
11:15 14.4 °C 10.4 °C 1021.7 hPa NE 8.7 km/h 14.8 km/h 77% 0.0 mm CLR
11:20 14.5 °C 10.3 °C 1021.8 hPa North 9.7 km/h 16.1 km/h 76% 0.0 mm CLR
11:25 14.6 °C 10.4 °C 1021.8 hPa North 9.7 km/h 19.3 km/h 76% 0.0 mm CLR
11:30 14.7 °C 10.1 °C 1021.8 hPa North 8.0 km/h 19.3 km/h 74% 0.0 mm CLR
11:35 14.7 °C 9.9 °C 1021.9 hPa NNE 8.4 km/h 16.7 km/h 73% 0.0 mm CLR
11:40 14.7 °C 9.7 °C 1021.9 hPa NE 11.9 km/h 13.0 km/h 72% 0.0 mm CLR
11:45 14.8 °C 9.8 °C 1021.9 hPa NNE 11.3 km/h 16.1 km/h 72% 0.0 mm CLR
11:50 14.8 °C 9.8 °C 1021.8 hPa NNE 9.7 km/h 25.7 km/h 72% 0.0 mm CLR
11:55 14.7 °C 9.5 °C 1021.8 hPa NE 9.5 km/h 22.2 km/h 71% 0.0 mm CLR
12:00 14.7 °C 9.3 °C 1021.8 hPa NNE 14.5 km/h 24.1 km/h 70% 0.0 mm CLR
12:05 14.8 °C 9.4 °C 1021.7 hPa NNE 14.5 km/h 22.5 km/h 70% 0.0 mm CLR
12:10 14.9 °C 9.3 °C 1021.7 hPa North 11.9 km/h 22.2 km/h 69% 0.0 mm CLR
12:15 14.9 °C 9.5 °C 1021.7 hPa NNE 11.3 km/h 24.1 km/h 70% 0.0 mm CLR
12:20 15.0 °C 9.3 °C 1021.8 hPa NNE 13.7 km/h 16.7 km/h 69% 0.0 mm CLR
12:25 15.2 °C 9.6 °C 1021.8 hPa NNE 12.9 km/h 19.3 km/h 69% 0.0 mm CLR
12:30 15.4 °C 9.7 °C 1021.8 hPa NE 9.5 km/h 18.5 km/h 69% 0.0 mm CLR
12:35 15.4 °C 9.5 °C 1021.7 hPa NE 9.5 km/h 18.5 km/h 68% 0.0 mm CLR
12:40 15.4 °C 9.5 °C 1021.7 hPa North 11.3 km/h 20.9 km/h 68% 0.0 mm CLR
12:45 15.4 °C 9.3 °C 1021.7 hPa NNW 10.3 km/h 18.5 km/h 67% 0.0 mm CLR
12:50 15.4 °C 9.1 °C 1021.7 hPa NNE 11.3 km/h 19.3 km/h 66% 0.0 mm CLR
12:55 15.4 °C 8.8 °C 1021.7 hPa NNE 11.3 km/h 22.5 km/h 65% 0.0 mm CLR
13:00 15.5 °C 8.7 °C 1021.7 hPa NNE 12.9 km/h 20.9 km/h 64% 0.0 mm CLR
13:05 15.6 °C 8.6 °C 1021.7 hPa North 13.0 km/h 14.8 km/h 63% 0.0 mm CLR
13:10 15.7 °C 8.7 °C 1021.7 hPa NNE 9.7 km/h 20.9 km/h 63% 0.0 mm CLR
13:15 15.7 °C 8.9 °C 1021.7 hPa NE 8.7 km/h 24.1 km/h 64% 0.0 mm CLR
13:20 15.5 °C 8.7 °C 1021.5 hPa NE 12.2 km/h 20.4 km/h 64% 0.0 mm CLR
13:25 15.5 °C 8.9 °C 1021.5 hPa NNE 12.9 km/h 20.9 km/h 65% 0.0 mm CLR
13:30 15.6 °C 8.8 °C 1021.5 hPa NNE 10.3 km/h 16.7 km/h 64% 0.0 mm CLR
13:35 15.7 °C 8.9 °C 1021.5 hPa NNE 11.3 km/h 19.3 km/h 64% 0.0 mm CLR
13:40 15.6 °C 8.6 °C 1021.5 hPa North 11.9 km/h 18.5 km/h 63% 0.0 mm CLR
13:45 15.6 °C 8.6 °C 1021.5 hPa NNE 11.3 km/h 22.5 km/h 63% 0.0 mm CLR
13:50 15.6 °C 8.8 °C 1021.5 hPa NNE 13.7 km/h 15.6 km/h 64% 0.0 mm CLR
13:55 15.6 °C 9.5 °C 1021.5 hPa NE 13.7 km/h 18.5 km/h 67% 0.0 mm CLR
14:00 15.4 °C 10.0 °C 1021.5 hPa NNE 12.9 km/h 22.5 km/h 70% 0.0 mm CLR
14:05 15.3 °C 10.5 °C 1021.5 hPa North 13.0 km/h 9.3 km/h 73% 0.0 mm CLR
14:10 15.1 °C 10.5 °C 1021.5 hPa North 8.0 km/h 19.3 km/h 74% 0.0 mm CLR
14:15 14.9 °C 10.5 °C 1021.5 hPa NE 6.9 km/h 11.1 km/h 75% 0.0 mm CLR
14:20 14.7 °C 10.1 °C 1021.4 hPa NNE 6.9 km/h 13.0 km/h 74% 0.0 mm CLR
14:25 14.5 °C 10.1 °C 1021.4 hPa NNE 6.9 km/h 11.1 km/h 75% 0.0 mm CLR
14:30 14.4 °C 9.8 °C 1021.4 hPa ESE 8.4 km/h 9.3 km/h 74% 0.0 mm CLR
14:35 14.4 °C 9.8 °C 1021.2 hPa ENE 8.0 km/h 9.7 km/h 74% 0.0 mm CLR
14:40 14.4 °C 9.6 °C 1021.2 hPa NE 4.8 km/h 14.5 km/h 73% 0.0 mm CLR
14:45 14.5 °C 8.9 °C 1021.2 hPa NNE 5.0 km/h 22.2 km/h 69% 0.0 mm CLR
14:50 14.7 °C 8.8 °C 1021.0 hPa NNE 10.3 km/h 18.5 km/h 68% 0.0 mm CLR
14:55 14.7 °C 8.7 °C 1021.0 hPa NE 11.3 km/h 25.7 km/h 67% 0.3 mm RA
15:00 14.8 °C 8.5 °C 1021.0 hPa NE 14.5 km/h 24.1 km/h 66% 0.0 mm RA
15:05 14.8 °C 8.3 °C 1020.9 hPa ENE 14.0 km/h 24.1 km/h 65% 0.3 mm
15:10 14.8 °C 8.1 °C 1020.9 hPa NE 14.5 km/h 32.2 km/h 64% 0.0 mm
15:15 14.9 °C 8.2 °C 1020.9 hPa NE 14.5 km/h 32.2 km/h 64% 0.0 mm
15:20 15.1 °C 8.3 °C 1020.8 hPa NE 16.1 km/h 24.1 km/h 64% 0.0 mm
15:25 15.1 °C 8.3 °C 1020.8 hPa NE 16.1 km/h 24.1 km/h 64% 0.0 mm
15:30 15.1 °C 8.1 °C 1020.8 hPa ENE 14.0 km/h 22.2 km/h 63% 0.3 mm CLR
15:35 14.9 °C 7.9 °C 1020.7 hPa NE 14.5 km/h 24.1 km/h 63% 0.0 mm
15:37 14.9 °C 7.9 °C 1020.7 hPa NE 14.8 km/h 20.4 km/h 63% 0.3 mm CLR
15:45 14.8 °C 7.8 °C 1020.7 hPa NE 14.5 km/h 29.0 km/h 63% 0.0 mm
15:50 14.6 °C 7.6 °C 1020.6 hPa NE 16.1 km/h 27.4 km/h 63% 0.0 mm
15:55 14.6 °C 7.4 °C 1020.6 hPa ENE 16.4 km/h 14.8 km/h 62% 0.0 mm CLR
16:00 14.7 °C 7.5 °C 1020.6 hPa NE 14.5 km/h 22.5 km/h 62% 0.0 mm CLR
16:05 14.7 °C 7.3 °C 1020.5 hPa NE 14.5 km/h 25.7 km/h 61% 0.0 mm CLR
16:10 14.7 °C 7.7 °C 1020.5 hPa NNE 14.0 km/h 24.1 km/h 63% 0.0 mm CLR
16:15 14.7 °C 7.7 °C 1020.5 hPa ENE 14.0 km/h 19.0 km/h 63% 0.0 mm CLR
16:20 14.7 °C 7.7 °C 1020.5 hPa NE 13.0 km/h 22.2 km/h 63% 0.0 mm CLR
16:25 14.7 °C 7.5 °C 1020.5 hPa NE 13.0 km/h 20.4 km/h 62% 0.0 mm CLR
16:30 14.6 °C 7.4 °C 1020.5 hPa NE 15.6 km/h 14.8 km/h 62% 0.0 mm CLR
16:35 14.7 °C 7.3 °C 1020.6 hPa NE 14.5 km/h 19.3 km/h 61% 0.0 mm CLR
16:40 14.8 °C 6.8 °C 1020.6 hPa NE 11.3 km/h 16.1 km/h 59% 0.0 mm CLR
16:45 14.9 °C 6.7 °C 1020.6 hPa NE 11.3 km/h 22.5 km/h 58% 0.0 mm CLR
16:50 14.9 °C 6.4 °C 1020.7 hPa NE 11.3 km/h 24.1 km/h 57% 0.0 mm CLR
16:55 14.8 °C 6.3 °C 1020.7 hPa NE 11.3 km/h 24.1 km/h 57% 0.0 mm CLR
17:00 14.8 °C 6.3 °C 1020.7 hPa NE 12.9 km/h 24.1 km/h 57% 0.0 mm CLR
17:05 14.8 °C 6.3 °C 1020.9 hPa NNE 13.0 km/h 18.5 km/h 57% 0.0 mm CLR
17:10 14.8 °C 6.6 °C 1020.9 hPa NE 12.2 km/h 25.9 km/h 58% 0.0 mm CLR
17:15 14.8 °C 6.8 °C 1020.9 hPa NE 12.9 km/h 25.7 km/h 59% 0.0 mm CLR
17:20 14.8 °C 6.8 °C 1020.8 hPa NE 14.8 km/h 22.2 km/h 59% 0.0 mm CLR
17:25 14.9 °C 7.2 °C 1020.8 hPa NE 14.8 km/h 10.3 km/h 60% 0.0 mm CLR
17:30 15.2 °C 7.5 °C 1020.8 hPa NE 13.0 km/h 20.4 km/h 60% 0.0 mm CLR
17:35 15.2 °C 7.7 °C 1020.6 hPa NE 13.0 km/h 24.1 km/h 61% 0.0 mm CLR
17:40 14.9 °C 7.7 °C 1020.6 hPa NE 14.5 km/h 24.1 km/h 62% 0.0 mm CLR
17:45 14.8 °C 7.8 °C 1020.6 hPa NE 14.5 km/h 22.5 km/h 63% 0.0 mm CLR
17:50 14.8 °C 7.8 °C 1020.7 hPa NE 12.9 km/h 22.5 km/h 63% 0.0 mm CLR
17:55 14.8 °C 8.1 °C 1020.7 hPa NE 12.9 km/h 16.1 km/h 64% 0.0 mm CLR
18:00 14.8 °C 8.1 °C 1020.7 hPa NE 9.7 km/h 19.3 km/h 64% 0.0 mm CLR
18:05 14.9 °C 8.2 °C 1020.8 hPa NE 10.0 km/h 20.4 km/h 64% 0.0 mm CLR
18:10 14.8 °C 7.8 °C 1020.8 hPa NNE 10.0 km/h 16.7 km/h 63% 0.0 mm CLR
18:15 14.7 °C 7.7 °C 1020.8 hPa NE 9.7 km/h 22.5 km/h 63% 0.0 mm CLR
18:20 14.7 °C 7.7 °C 1021.1 hPa NE 11.9 km/h 11.9 km/h 63% 0.0 mm CLR
18:25 14.6 °C 7.6 °C 1021.1 hPa East 11.9 km/h 22.2 km/h 63% 0.0 mm CLR
18:30 14.5 °C 7.6 °C 1021.1 hPa NNE 10.3 km/h 16.7 km/h 63% 0.0 mm CLR
18:35 14.5 °C 7.6 °C 1021.2 hPa NE 10.3 km/h 16.7 km/h 63% 0.0 mm CLR
18:40 14.5 °C 7.8 °C 1021.2 hPa NNE 8.7 km/h 14.8 km/h 64% 0.0 mm CLR
18:45 14.4 °C 7.7 °C 1021.2 hPa ENE 9.7 km/h 12.9 km/h 64% 0.0 mm CLR
18:50 14.3 °C 7.6 °C 1021.4 hPa North 8.7 km/h 13.0 km/h 64% 0.0 mm CLR
18:55 14.3 °C 7.6 °C 1021.4 hPa East 8.7 km/h 7.6 km/h 64% 0.0 mm CLR
19:00 14.2 °C 7.5 °C 1021.4 hPa ENE 4.8 km/h 9.7 km/h 64% 0.0 mm CLR
19:05 14.1 °C 7.4 °C 1021.5 hPa ENE 4.8 km/h 12.9 km/h 64% 0.0 mm CLR
19:10 14.1 °C 7.6 °C 1021.5 hPa NNE 6.4 km/h 7.4 km/h 65% 0.0 mm CLR
19:15 14.0 °C 7.5 °C 1021.5 hPa NE 8.0 km/h 9.7 km/h 65% 0.0 mm CLR
19:20 13.9 °C 7.7 °C 1021.6 hPa ENE 5.0 km/h 10.0 km/h 66% 0.0 mm CLR
19:25 13.8 °C 7.6 °C 1021.6 hPa NE 5.0 km/h 3.9 km/h 66% 0.0 mm CLR
19:30 13.7 °C 7.4 °C 1021.6 hPa NNE 5.0 km/h 9.3 km/h 66% 0.0 mm CLR
19:35 13.7 °C 7.4 °C 1021.7 hPa NE 4.8 km/h 11.3 km/h 66% 0.0 mm CLR
19:40 13.6 °C 7.4 °C 1021.7 hPa NNE 5.8 km/h 9.3 km/h 66% 0.0 mm CLR
19:45 13.5 °C 7.3 °C 1021.7 hPa NE 4.8 km/h 12.9 km/h 66% 0.0 mm CLR
19:50 13.4 °C 7.2 °C 1021.8 hPa NE 4.8 km/h 9.7 km/h 66% 0.0 mm CLR
19:55 13.4 °C 7.2 °C 1021.8 hPa East 5.8 km/h 9.3 km/h 66% 0.0 mm CLR
20:00 13.3 °C 7.3 °C 1021.8 hPa NE 4.8 km/h 9.7 km/h 67% 0.0 mm CLR
20:05 13.2 °C 7.2 °C 1021.9 hPa NNE 5.0 km/h 7.4 km/h 67% 0.0 mm CLR
20:10 13.1 °C 7.1 °C 1021.9 hPa ENE 3.9 km/h 7.4 km/h 67% 0.0 mm CLR
20:15 13.1 °C 7.1 °C 1021.9 hPa ENE 3.9 km/h 5.8 km/h 67% 0.0 mm CLR
20:20 13.0 °C 7.2 °C 1022.0 hPa ENE 4.7 km/h 7.4 km/h 68% 0.0 mm CLR
20:25 13.0 °C 7.2 °C 1022.0 hPa ENE 3.2 km/h 8.0 km/h 68% 0.0 mm CLR
20:30 12.9 °C 7.1 °C 1022.0 hPa ENE 3.2 km/h 8.0 km/h 68% 0.0 mm CLR
20:35 12.9 °C 7.3 °C 1022.0 hPa ENE 3.2 km/h 9.7 km/h 69% 0.0 mm CLR
20:40 12.9 °C 7.3 °C 1022.0 hPa ENE 3.2 km/h 8.0 km/h 69% 0.0 mm CLR
20:45 12.9 °C 7.6 °C 1022.0 hPa East 4.7 km/h 9.3 km/h 70% 0.0 mm CLR
20:50 12.8 °C 7.4 °C 1022.1 hPa East 4.7 km/h 7.4 km/h 70% 0.0 mm CLR
20:55 12.9 °C 7.6 °C 1022.1 hPa East 4.7 km/h 5.6 km/h 70% 0.0 mm CLR
21:00 12.9 °C 7.6 °C 1022.1 hPa East 3.2 km/h 4.8 km/h 70% 0.0 mm CLR
21:05 12.8 °C 7.4 °C 1022.3 hPa East 3.2 km/h 8.0 km/h 70% 0.0 mm CLR
21:10 12.6 °C 7.3 °C 1022.3 hPa NNE 3.9 km/h 5.6 km/h 70% 0.0 mm CLR
21:15 12.5 °C 7.2 °C 1022.3 hPa NNE 3.2 km/h 8.0 km/h 70% 0.0 mm CLR
21:20 12.3 °C 7.2 °C 1022.5 hPa NNE 4.7 km/h 5.6 km/h 71% 0.0 mm CLR
21:25 12.3 °C 7.2 °C 1022.5 hPa NNE 4.7 km/h 5.6 km/h 71% 0.0 mm CLR
21:30 12.2 °C 7.3 °C 1022.5 hPa NNE 3.2 km/h 8.0 km/h 72% 0.0 mm CLR
21:35 12.2 °C 7.3 °C 1022.6 hPa NNE 3.2 km/h 8.0 km/h 72% 0.0 mm CLR
21:40 12.2 °C 7.3 °C 1022.6 hPa NNE 3.2 km/h 4.8 km/h 72% 0.0 mm CLR
21:45 12.2 °C 7.3 °C 1022.6 hPa NNE 3.2 km/h 5.6 km/h 72% 0.0 mm CLR
21:50 12.2 °C 7.3 °C 1022.8 hPa NNE 2.3 km/h 3.7 km/h 72% 0.0 mm CLR
21:55 12.2 °C 7.3 °C 1022.8 hPa NNE 2.3 km/h 3.7 km/h 72% 0.0 mm CLR
22:00 12.1 °C 7.2 °C 1022.8 hPa Calm   4.8 km/h 72% 0.0 mm CLR
22:05 12.2 °C 7.3 °C 1023.0 hPa Calm   3.7 km/h 72% 0.0 mm CLR
22:10 12.2 °C 7.3 °C 1023.0 hPa NNE 1.6 km/h 3.2 km/h 72% 0.0 mm CLR
22:15 12.2 °C 7.5 °C 1023.0 hPa NNE 2.3 km/h 7.4 km/h 73% 0.0 mm CLR
22:20 12.2 °C 7.5 °C 1023.0 hPa NNE 2.9 km/h 7.4 km/h 73% 0.0 mm CLR
22:25 12.2 °C 7.5 °C 1023.0 hPa NNE 2.9 km/h 5.6 km/h 73% 0.0 mm CLR
22:30 12.2 °C 7.5 °C 1023.0 hPa NNE 3.2 km/h 4.7 km/h 73% 0.0 mm CLR
22:35 12.2 °C 7.5 °C 1023.0 hPa NNE 3.2 km/h 7.4 km/h 73% 0.0 mm CLR
22:40 12.2 °C 7.5 °C 1023.0 hPa NNE 3.2 km/h 3.7 km/h 73% 0.0 mm CLR
22:45 12.2 °C 7.5 °C 1023.0 hPa NNE 3.2 km/h 3.7 km/h 73% 0.0 mm CLR
22:50 12.2 °C 7.5 °C 1023.2 hPa NNE 2.3 km/h   73% 0.0 mm CLR
22:55 12.2 °C 7.5 °C 1023.2 hPa NNE 2.3 km/h 3.9 km/h 73% 0.0 mm CLR
23:00 12.2 °C 7.5 °C 1023.2 hPa Calm   4.8 km/h 73% 0.0 mm CLR
23:05 12.1 °C 7.4 °C 1023.1 hPa Calm     73% 0.0 mm CLR
23:10 12.1 °C 7.4 °C 1023.1 hPa Calm     73% 0.0 mm CLR
23:15 12.1 °C 7.4 °C 1023.1 hPa Calm     73% 0.0 mm CLR
23:20 12.1 °C 7.4 °C 1023.1 hPa Calm   3.7 km/h 73% 0.0 mm CLR
23:25 11.9 °C 7.3 °C 1023.1 hPa Calm   4.8 km/h 73% 0.0 mm CLR
23:30 11.9 °C 7.4 °C 1023.1 hPa Calm   3.2 km/h 74% 0.0 mm CLR
23:35 11.9 °C 7.4 °C 1023.1 hPa Calm   4.8 km/h 74% 0.0 mm CLR
23:40 11.9 °C 7.2 °C 1023.1 hPa NNE 1.6 km/h 8.0 km/h 73% 0.0 mm CLR
23:45 11.8 °C 7.1 °C 1023.1 hPa NNE 1.6 km/h 3.2 km/h 73% 0.0 mm CLR
23:50 11.7 °C 7.2 °C 1023.1 hPa Calm     74% 0.0 mm CLR
23:55 11.7 °C 7.2 °C 1023.1 hPa Calm     74% 0.0 mm CLR
Murcia-Puente Tocinos, España
Compliments of Weather Underground - 2.75 mb

La estación de MeteoMurcia.com, publica sus datos en los siguientes proyectos:

Weather Underground PWS IMURCIAP2 Meteoclimatic www.awekas.at

W3Counter
Web Analytics